Silver City, Texas
Current Conditions -  °F | °C
As of 3:53 AM on Friday 19 Dec 2014 (Local Time) from KCRS Reporting Station
Light Rain Light Rain  
Wind Chill: 43°   Ceiling: 600
Heat Index: 48°   Visibility: 3mi
Dew Point: 45°   Wind: 10mph
Humidity: 89%   Direction: 10°N
Pressure: 30.13"   Gusts: NA
Location:  31.9458°N, 96.5713°W
Report Text: KCRS 190953Z AUTO 01009KT 3SM -RA BR OVC006 09/07 A3013 RMK AO2 RAB03 SLP202 P0000 T00890072
Loading
Personal Weather Stations






























Interactive Weather Map New forecast layout! Learn more

10-Day Weather Forecast

Advertisements
Track Severe Weather on mobile